Time;durP1;ratioP1;P1;durP2;ratioP2;P2;SDS_P1;SDS_P2;PMS_P1;PMS_P2;Temp;Humidity;BMP_temperature;BMP_pressure;BME280_temperature;BME280_humidity;BME280_pressure;Samples;Min_cycle;Max_cycle;Signal;HPM_P1;HPM_P2
2023/03/24 00:00:14;;;;;;;2.70;1.25;;;16.70;51.80;;;;;;4946734;28;20495;-46
2023/03/24 00:02:44;;;;;;;2.03;1.02;;;16.70;52.30;;;;;;4945417;28;20610;-46
2023/03/24 00:05:12;;;;;;;2.35;1.40;;;16.70;51.80;;;;;;4946604;28;20070;-45
2023/03/24 00:07:41;;;;;;;2.55;1.33;;;16.70;51.80;;;;;;4945419;28;20062;-44
2023/03/24 00:10:11;;;;;;;3.95;1.23;;;16.70;51.80;;;;;;4946056;28;20059;-46
2023/03/24 00:12:38;;;;;;;3.03;1.20;;;16.70;51.80;;;;;;4945523;28;20411;-45
2023/03/24 00:15:13;;;;;;;1.75;1.10;;;16.70;51.80;;;;;;4946458;28;20142;-44
2023/03/24 00:17:40;;;;;;;2.33;1.35;;;16.70;51.90;;;;;;4945726;28;20530;-44
2023/03/24 00:20:13;;;;;;;4.35;1.48;;;16.70;51.90;;;;;;4946846;28;20066;-44
2023/03/24 00:22:41;;;;;;;4.15;1.50;;;16.70;51.90;;;;;;4946231;28;20074;-46
2023/03/24 00:25:09;;;;;;;2.22;1.25;;;16.70;52.00;;;;;;4947343;28;20051;-45
2023/03/24 00:27:37;;;;;;;3.90;1.40;;;16.70;52.00;;;;;;4943649;28;20054;-45
2023/03/24 00:30:07;;;;;;;2.53;1.10;;;16.70;52.00;;;;;;4947375;28;20431;-49
2023/03/24 00:32:37;;;;;;;4.75;1.50;;;16.70;52.20;;;;;;4946295;28;20588;-45
2023/03/24 00:35:07;;;;;;;2.95;1.52;;;16.70;52.10;;;;;;4945297;28;20066;-48
2023/03/24 00:37:36;;;;;;;3.30;1.63;;;16.70;52.10;;;;;;4945119;28;20056;-44
2023/03/24 00:40:06;;;;;;;2.97;1.33;;;16.70;52.20;;;;;;4945342;28;20059;-47
2023/03/24 00:42:34;;;;;;;2.22;1.38;;;16.70;52.30;;;;;;4944901;28;20430;-51
2023/03/24 00:45:02;;;;;;;1.95;1.13;;;16.70;52.30;;;;;;4948000;28;20526;-45
2023/03/24 00:47:30;;;;;;;6.78;1.90;;;16.70;52.30;;;;;;4945807;28;20047;-48
2023/03/24 00:50:00;;;;;;;3.90;1.58;;;16.70;52.40;;;;;;4945073;28;20070;-45
2023/03/24 00:52:32;;;;;;;3.40;1.30;;;16.70;52.50;;;;;;4945789;28;20047;-47
2023/03/24 00:55:01;;;;;;;3.30;1.35;;;16.70;52.60;;;;;;4946689;28;20055;-47
2023/03/24 00:57:33;;;;;;;2.00;1.40;;;16.70;52.70;;;;;;4942559;28;20582;-47
2023/03/24 01:00:09;;;;;;;3.15;1.60;;;16.70;52.80;;;;;;4945478;28;20059;-46
2023/03/24 01:02:37;;;;;;;4.38;1.83;;;16.70;52.90;;;;;;4945914;28;20066;-44
2023/03/24 01:05:07;;;;;;;3.22;1.38;;;16.60;52.90;;;;;;4945132;28;20476;-45
2023/03/24 01:07:35;;;;;;;2.97;1.65;;;16.70;53.10;;;;;;4945765;28;20055;-45
2023/03/24 01:10:03;;;;;;;4.28;1.65;;;16.60;53.10;;;;;;4946207;28;20486;-44
2023/03/24 01:12:33;;;;;;;3.85;1.73;;;16.60;53.20;;;;;;4945121;28;20051;-47
2023/03/24 01:15:04;;;;;;;3.25;1.73;;;16.60;53.40;;;;;;4946800;28;20420;-47
2023/03/24 01:17:33;;;;;;;2.95;1.70;;;16.60;53.40;;;;;;4945561;28;20055;-44
2023/03/24 01:20:06;;;;;;;2.35;1.67;;;16.60;53.50;;;;;;4946666;28;20055;-46
2023/03/24 01:22:36;;;;;;;2.00;1.30;;;16.60;53.60;;;;;;4944808;28;20062;-46
2023/03/24 01:25:04;;;;;;;3.60;1.63;;;16.50;53.60;;;;;;4942742;28;20062;-44
2023/03/24 01:27:31;;;;;;;2.85;1.55;;;16.50;53.60;;;;;;4943539;28;20388;-45
2023/03/24 01:30:00;;;;;;;2.63;1.60;;;16.50;53.70;;;;;;4945418;28;20055;-44
2023/03/24 01:32:27;;;;;;;1.75;1.50;;;16.50;53.80;;;;;;4944898;28;20058;-45
2023/03/24 01:34:55;;;;;;;2.65;1.50;;;16.50;53.80;;;;;;4944326;28;20047;-44
2023/03/24 01:37:23;;;;;;;3.42;1.58;;;16.50;53.80;;;;;;4945984;28;20055;-46
2023/03/24 01:39:52;;;;;;;3.15;1.80;;;16.50;54.00;;;;;;4944069;28;20055;-45
2023/03/24 01:42:22;;;;;;;2.63;1.58;;;16.50;54.00;;;;;;4941000;28;20055;-49
2023/03/24 01:44:51;;;;;;;2.17;1.50;;;16.50;54.00;;;;;;4944379;28;20080;-44
2023/03/24 01:47:19;;;;;;;3.58;1.80;;;16.50;54.00;;;;;;4943360;28;20059;-50
2023/03/24 01:49:52;;;;;;;2.65;1.63;;;16.50;54.20;;;;;;4943814;28;20055;-48
2023/03/24 01:52:25;;;;;;;6.30;1.80;;;16.50;54.20;;;;;;4944875;28;20412;-46
2023/03/24 01:54:58;;;;;;;2.53;1.48;;;16.50;54.20;;;;;;4943503;28;20082;-44
2023/03/24 01:57:29;;;;;;;3.20;1.65;;;16.40;54.20;;;;;;4943114;28;20051;-45
2023/03/24 02:00:01;;;;;;;2.90;1.88;;;16.40;54.30;;;;;;4944555;28;20055;-46
2023/03/24 02:02:33;;;;;;;2.90;1.73;;;16.40;54.30;;;;;;4944303;28;20063;-45
2023/03/24 02:05:04;;;;;;;3.42;1.98;;;16.40;54.40;;;;;;4990969;23;20054;-84
2023/03/24 02:07:34;;;;;;;2.80;1.73;;;16.40;54.40;;;;;;4982381;28;20409;-83
2023/03/24 02:10:05;;;;;;;5.05;1.73;;;16.40;54.30;;;;;;4983767;28;20058;-84
2023/03/24 02:12:33;;;;;;;3.58;2.00;;;16.40;54.40;;;;;;4981564;28;20057;-85
2023/03/24 02:15:02;;;;;;;4.13;2.20;;;16.40;54.40;;;;;;4983082;28;20120;-83
2023/03/24 02:17:45;;;;;;;3.92;1.98;;;16.40;54.40;;;;;;4981443;28;20058;-85
2023/03/24 02:20:54;;;;;;;3.42;1.95;;;16.40;55.00;;;;;;4982272;28;20061;-84
2023/03/24 02:23:55;;;;;;;3.22;1.80;;;16.40;54.60;;;;;;4982257;28;20058;-85
2023/03/24 02:26:52;;;;;;;2.65;1.83;;;16.30;54.60;;;;;;4966881;28;20494;-83
2023/03/24 02:30:00;;;;;;;6.07;2.25;;;16.30;54.60;;;;;;4981846;28;20046;-83
2023/03/24 02:32:52;;;;;;;4.28;1.98;;;16.30;54.60;;;;;;4981079;28;20061;-83
2023/03/24 02:35:52;;;;;;;5.68;2.15;;;16.30;54.60;;;;;;4982894;28;20077;-84
2023/03/24 02:38:45;;;;;;;3.47;2.08;;;16.30;54.60;;;;;;4965633;28;20047;-83
2023/03/24 02:41:20;;;;;;;3.67;2.10;;;16.30;54.70;;;;;;4980923;28;20418;-83
2023/03/24 02:43:59;;;;;;;3.90;2.00;;;16.30;54.60;;;;;;4982580;28;20058;-84
2023/03/24 02:46:33;;;;;;;4.57;2.47;;;16.30;54.60;;;;;;4984066;28;20050;-84
2023/03/24 02:49:11;;;;;;;3.47;2.22;;;16.30;54.80;;;;;;4982682;28;20382;-84
2023/03/24 02:51:48;;;;;;;4.95;2.40;;;16.30;55.20;;;;;;4983249;28;20069;-83
2023/03/24 02:54:19;;;;;;;3.35;2.13;;;16.30;54.70;;;;;;4982551;28;20050;-84
2023/03/24 02:56:54;;;;;;;3.45;2.58;;;16.30;54.70;;;;;;4980222;28;20545;-84
2023/03/24 02:59:30;;;;;;;4.10;2.22;;;16.30;54.70;;;;;;4981543;28;20058;-84
2023/03/24 03:02:02;;;;;;;3.80;2.25;;;16.30;54.70;;;;;;4985528;28;20486;-83
2023/03/24 03:04:33;;;;;;;3.75;2.28;;;16.30;54.70;;;;;;4985533;28;20081;-83
2023/03/24 03:07:05;;;;;;;6.20;2.20;;;16.30;54.60;;;;;;4984259;28;20058;-83
2023/03/24 03:09:36;;;;;;;5.38;2.60;;;16.30;54.60;;;;;;4985623;28;20061;-83
2023/03/24 03:12:06;;;;;;;5.25;3.00;;;16.30;54.60;;;;;;4984927;28;20061;-83
2023/03/24 03:14:38;;;;;;;3.50;2.10;;;16.30;54.60;;;;;;4985288;28;20050;-85
2023/03/24 03:17:11;;;;;;;9.30;3.20;;;16.30;54.60;;;;;;4985738;28;20046;-83
2023/03/24 03:19:42;;;;;;;5.25;2.53;;;16.30;54.50;;;;;;4986511;28;20054;-83
2023/03/24 03:22:15;;;;;;;5.70;3.10;;;16.30;54.50;;;;;;4986036;28;20501;-83
2023/03/24 03:24:49;;;;;;;4.28;2.65;;;16.40;54.50;;;;;;4985999;28;20043;-85
2023/03/24 03:27:20;;;;;;;3.67;2.40;;;16.40;54.40;;;;;;4984568;28;20505;-83
2023/03/24 03:29:53;;;;;;;5.95;3.00;;;16.40;54.40;;;;;;4985436;28;20079;-83
2023/03/24 03:32:27;;;;;;;5.75;2.80;;;16.40;54.40;;;;;;4986187;28;20418;-82
2023/03/24 03:34:59;;;;;;;4.20;2.73;;;16.40;54.40;;;;;;4986690;28;20085;-82
2023/03/24 03:37:34;;;;;;;4.45;2.70;;;16.40;54.40;;;;;;4983489;28;20045;-82
2023/03/24 03:40:06;;;;;;;3.53;2.60;;;16.50;54.40;;;;;;4985287;28;20043;-87
2023/03/24 03:42:35;;;;;;;6.93;3.53;;;16.50;54.40;;;;;;4984171;28;20054;-86
2023/03/24 03:45:03;;;;;;;6.40;2.90;;;16.40;54.80;;;;;;4985529;28;20061;-87
2023/03/24 03:47:31;;;;;;;6.38;3.00;;;16.50;54.30;;;;;;4985212;28;20061;-87
2023/03/24 03:49:58;;;;;;;4.03;2.75;;;16.50;54.30;;;;;;4984771;28;20065;-87
2023/03/24 03:52:25;;;;;;;6.55;3.20;;;16.50;54.30;;;;;;4986179;28;20061;-87
2023/03/24 03:54:54;;;;;;;3.00;2.22;;;16.50;54.30;;;;;;4984117;28;20058;-87
2023/03/24 03:57:22;;;;;;;6.53;2.20;;;16.50;54.20;;;;;;4982898;28;20412;-87
2023/03/24 03:59:50;;;;;;;3.20;2.50;;;16.50;54.20;;;;;;4986420;28;20050;-84
2023/03/24 04:02:32;;;;;;;3.92;2.35;;;16.50;54.20;;;;;;4985346;28;20054;-85
2023/03/24 04:05:13;;;;;;;4.75;2.70;;;16.50;54.20;;;;;;4984948;28;20451;-84
2023/03/24 04:08:02;;;;;;;4.68;2.70;;;16.50;54.10;;;;;;4983335;28;20520;-84
2023/03/24 04:10:39;;;;;;;3.30;2.58;;;16.50;54.10;;;;;;4985581;28;20062;-85
2023/03/24 04:13:18;;;;;;;3.63;2.50;;;16.60;54.10;;;;;;4983501;28;20058;-85
2023/03/24 04:15:52;;;;;;;4.60;2.30;;;16.50;54.10;;;;;;4984640;28;20050;-85
2023/03/24 04:18:32;;;;;;;4.00;2.67;;;16.60;54.10;;;;;;4982861;28;20057;-85
2023/03/24 04:21:27;;;;;;;3.50;2.50;;;16.60;54.10;;;;;;4984828;28;20367;-84
2023/03/24 04:24:04;;;;;;;3.35;2.28;;;16.60;54.10;;;;;;4984460;28;20058;-84
2023/03/24 04:26:41;;;;;;;4.97;2.70;;;16.60;54.10;;;;;;4984583;28;20065;-84
2023/03/24 04:29:17;;;;;;;4.05;2.40;;;16.60;54.10;;;;;;4983817;28;20074;-84
2023/03/24 04:31:52;;;;;;;4.35;2.60;;;16.60;54.00;;;;;;4985446;28;20053;-84
2023/03/24 04:34:25;;;;;;;2.88;1.80;;;16.60;54.10;;;;;;4984354;28;20461;-85
2023/03/24 04:36:56;;;;;;;2.10;1.90;;;16.60;54.00;;;;;;4982926;28;20054;-84
2023/03/24 04:39:27;;;;;;;2.72;2.30;;;16.60;54.00;;;;;;4983752;28;20050;-84
2023/03/24 04:41:57;;;;;;;4.97;2.75;;;16.60;53.90;;;;;;4983060;28;20058;-83
2023/03/24 04:44:25;;;;;;;5.72;2.53;;;16.60;53.90;;;;;;4983333;28;20421;-85
2023/03/24 04:46:57;;;;;;;10.80;2.90;;;16.60;53.90;;;;;;4982426;28;20058;-83
2023/03/24 04:49:26;;;;;;;3.38;2.45;;;16.60;53.90;;;;;;4982907;28;20065;-84
2023/03/24 04:51:53;;;;;;;3.80;2.30;;;16.60;53.90;;;;;;4984073;28;20058;-83
2023/03/24 04:54:21;;;;;;;5.43;1.95;;;16.60;53.90;;;;;;4983394;28;20525;-85
2023/03/24 04:56:51;;;;;;;2.83;1.63;;;16.60;53.90;;;;;;4982242;28;20494;-84
2023/03/24 04:59:20;;;;;;;3.63;2.08;;;16.60;53.90;;;;;;4984048;28;20061;-85
2023/03/24 05:01:49;;;;;;;2.70;1.77;;;16.60;53.90;;;;;;4983460;28;20062;-86
2023/03/24 05:04:18;;;;;;;4.03;1.90;;;16.70;53.90;;;;;;4984174;28;20073;-83
2023/03/24 05:06:48;;;;;;;2.17;1.65;;;16.70;53.90;;;;;;4985197;28;20057;-83
2023/03/24 05:09:16;;;;;;;4.00;2.03;;;16.70;53.90;;;;;;4984554;28;20402;-84
2023/03/24 05:11:44;;;;;;;3.53;1.67;;;16.70;53.90;;;;;;4982318;28;20054;-83
2023/03/24 05:14:11;;;;;;;2.80;1.77;;;16.70;53.80;;;;;;4984254;28;20065;-85
2023/03/24 05:16:38;;;;;;;3.80;2.33;;;16.70;53.90;;;;;;4985282;28;20054;-83
2023/03/24 05:19:06;;;;;;;3.60;1.98;;;16.70;53.80;;;;;;4984300;28;20050;-83
2023/03/24 05:21:35;;;;;;;3.78;1.73;;;16.60;53.80;;;;;;4983727;28;20809;-86
2023/03/24 05:24:03;;;;;;;3.75;1.73;;;16.70;53.80;;;;;;4983419;28;20061;-84
2023/03/24 05:26:30;;;;;;;2.30;1.60;;;16.70;53.80;;;;;;4981598;28;20058;-83
2023/03/24 05:28:58;;;;;;;5.32;2.08;;;16.70;53.80;;;;;;4983660;28;20061;-83
2023/03/24 05:31:25;;;;;;;2.70;1.50;;;16.70;53.80;;;;;;4983481;28;20058;-86
2023/03/24 05:33:52;;;;;;;4.60;2.00;;;16.70;53.80;;;;;;4986573;28;20402;-83
2023/03/24 05:36:20;;;;;;;6.43;3.45;;;16.60;53.70;;;;;;4983179;28;20046;-84
2023/03/24 05:38:48;;;;;;;7.95;2.10;;;16.70;53.80;;;;;;4983524;28;20053;-87
2023/03/24 05:41:15;;;;;;;2.80;1.52;;;16.70;53.90;;;;;;4982817;28;20046;-84
2023/03/24 05:43:43;;;;;;;6.20;1.75;;;16.70;53.90;;;;;;4983275;28;20054;-83
2023/03/24 05:46:10;;;;;;;1.63;1.40;;;16.70;53.90;;;;;;4983115;28;20589;-83
2023/03/24 05:48:37;;;;;;;7.88;1.85;;;16.70;53.90;;;;;;4981978;28;20497;-82
2023/03/24 05:51:05;;;;;;;3.83;1.80;;;16.70;54.20;;;;;;4985080;28;20054;-83
2023/03/24 05:53:32;;;;;;;5.95;2.10;;;16.70;55.00;;;;;;4983584;28;20058;-83
2023/03/24 05:56:01;;;;;;;5.43;1.15;;;16.60;55.70;;;;;;4981842;28;20054;-85
2023/03/24 05:58:29;;;;;;;2.08;1.30;;;16.60;55.40;;;;;;4983002;28;20785;-87
2023/03/24 06:00:56;;;;;;;2.67;1.15;;;16.40;55.30;;;;;;4983349;28;20058;-82
2023/03/24 06:03:23;;;;;;;3.45;1.30;;;16.40;55.30;;;;;;4987525;28;20510;-84
2023/03/24 06:05:51;;;;;;;2.80;1.25;;;16.30;55.40;;;;;;4989555;28;20054;-86
2023/03/24 06:08:18;;;;;;;2.88;1.20;;;16.20;55.30;;;;;;4982896;28;20054;-84
2023/03/24 06:10:47;;;;;;;2.75;1.10;;;16.20;55.40;;;;;;4982627;28;20149;-85
2023/03/24 06:13:15;;;;;;;6.43;1.52;;;16.10;55.60;;;;;;4982948;28;20441;-84
2023/03/24 06:15:46;;;;;;;3.17;1.10;;;16.00;55.70;;;;;;4983790;28;20057;-84
2023/03/24 06:18:13;;;;;;;3.10;0.93;;;16.00;55.80;;;;;;4982527;28;20050;-88
2023/03/24 06:20:41;;;;;;;3.85;1.92;;;15.90;55.80;;;;;;4981198;28;20057;-83
2023/03/24 06:23:08;;;;;;;4.65;1.17;;;15.90;55.80;;;;;;4982148;28;20062;-83
2023/03/24 06:25:35;;;;;;;4.57;1.13;;;15.80;55.70;;;;;;4984218;28;20486;-83
2023/03/24 06:28:04;;;;;;;4.88;0.82;;;15.70;55.60;;;;;;4981483;28;20054;-84
2023/03/24 06:30:33;;;;;;;4.00;1.00;;;15.70;55.60;;;;;;4982577;28;20077;-83
2023/03/24 06:33:00;;;;;;;2.92;0.88;;;15.60;55.50;;;;;;4988707;28;20525;-84
2023/03/24 06:35:27;;;;;;;2.15;0.70;;;15.60;55.50;;;;;;4983387;28;20054;-84
2023/03/24 06:37:55;;;;;;;1.63;0.85;;;15.60;55.50;;;;;;4987162;28;20061;-84
2023/03/24 06:40:22;;;;;;;8.95;1.35;;;15.50;55.50;;;;;;4987149;28;20050;-83
2023/03/24 06:42:49;;;;;;;3.40;0.98;;;15.50;55.50;;;;;;4986520;28;20080;-82
2023/03/24 06:45:17;;;;;;;2.72;0.80;;;15.50;55.60;;;;;;4986574;28;20061;-84
2023/03/24 06:47:45;;;;;;;2.40;0.85;;;15.50;55.60;;;;;;4987321;28;20058;-82
2023/03/24 06:50:13;;;;;;;2.35;0.85;;;15.50;55.60;;;;;;4992983;28;20069;-84
2023/03/24 06:52:40;;;;;;;3.67;1.05;;;15.40;55.60;;;;;;4986844;28;20057;-83
2023/03/24 06:55:08;;;;;;;3.08;1.02;;;15.40;55.60;;;;;;4986632;28;20055;-84
2023/03/24 06:57:35;;;;;;;12.93;6.93;;;15.40;55.60;;;;;;4988201;28;20513;-83
2023/03/24 07:00:04;;;;;;;48.58;31.58;;;15.40;55.60;;;;;;4987061;28;20058;-83
2023/03/24 07:02:34;;;;;;;16.38;10.43;;;15.40;55.60;;;;;;4986734;28;20490;-83
2023/03/24 07:05:06;;;;;;;7.35;3.85;;;15.40;55.60;;;;;;4986310;28;20080;-83
2023/03/24 07:07:34;;;;;;;3.72;1.58;;;15.30;55.50;;;;;;4986555;28;20065;-84
2023/03/24 07:10:02;;;;;;;5.78;1.55;;;15.30;55.50;;;;;;4986452;28;20051;-84
2023/03/24 07:12:30;;;;;;;2.45;1.15;;;15.30;55.30;;;;;;4991094;28;20050;-83
2023/03/24 07:14:58;;;;;;;3.67;1.50;;;15.30;55.30;;;;;;4985845;28;20065;-84
2023/03/24 07:17:25;;;;;;;2.38;1.13;;;15.20;55.20;;;;;;4986940;28;20402;-85
2023/03/24 07:19:52;;;;;;;4.38;1.20;;;15.20;55.20;;;;;;4985413;28;20058;-84
2023/03/24 07:22:21;;;;;;;4.38;1.50;;;15.20;55.30;;;;;;4983205;28;20054;-84
2023/03/24 07:24:48;;;;;;;6.57;1.50;;;15.10;55.10;;;;;;4986501;28;20058;-82
2023/03/24 07:27:15;;;;;;;4.47;1.60;;;15.10;55.00;;;;;;4984594;28;20077;-82
2023/03/24 07:29:42;;;;;;;2.80;1.05;;;15.10;55.10;;;;;;4986425;28;20525;-82
2023/03/24 07:32:11;;;;;;;4.07;1.10;;;15.10;55.30;;;;;;4987740;28;20486;-82
2023/03/24 07:34:38;;;;;;;2.63;1.10;;;15.10;55.30;;;;;;4986653;28;20054;-83
2023/03/24 07:37:05;;;;;;;4.82;1.88;;;15.10;55.30;;;;;;4985113;28;20046;-84
2023/03/24 07:39:34;;;;;;;3.03;1.00;;;15.10;55.30;;;;;;4985492;28;20058;-83
2023/03/24 07:42:01;;;;;;;3.78;1.40;;;15.10;55.30;;;;;;4984886;28;20504;-82
2023/03/24 07:44:28;;;;;;;5.43;1.48;;;15.10;55.20;;;;;;4985238;28;20045;-82
2023/03/24 07:46:56;;;;;;;7.22;1.30;;;15.10;55.20;;;;;;4987101;28;20062;-82
2023/03/24 07:49:23;;;;;;;5.60;1.13;;;15.10;55.20;;;;;;4985132;28;20061;-82
2023/03/24 07:51:50;;;;;;;7.22;1.65;;;15.10;55.20;;;;;;4986548;28;20072;-82
2023/03/24 07:54:18;;;;;;;6.25;1.50;;;15.00;54.90;;;;;;4985450;28;20422;-84
2023/03/24 07:56:47;;;;;;;6.95;1.77;;;15.00;54.60;;;;;;4983250;28;20141;-85
2023/03/24 07:59:16;;;;;;;10.73;2.45;;;15.00;54.20;;;;;;4986119;28;20149;-82
2023/03/24 08:01:43;;;;;;;15.30;2.45;;;14.90;53.80;;;;;;4984817;28;20448;-84
2023/03/24 08:04:13;;;;;;;6.80;1.58;;;14.90;53.60;;;;;;4985082;28;20077;-82
2023/03/24 08:06:42;;;;;;;6.30;1.70;;;14.80;53.40;;;;;;4990751;28;20043;-84
2023/03/24 08:09:10;;;;;;;9.95;1.75;;;14.80;53.70;;;;;;4985328;28;20471;-82
2023/03/24 08:11:38;;;;;;;4.32;1.67;;;14.70;53.80;;;;;;4983881;28;20066;-82
2023/03/24 08:14:08;;;;;;;4.15;1.40;;;14.70;54.00;;;;;;4983942;28;20061;-84
2023/03/24 08:16:37;;;;;;;7.18;2.22;;;14.70;54.10;;;;;;4985000;28;20429;-84
2023/03/24 08:19:05;;;;;;;9.30;1.90;;;14.70;54.20;;;;;;4982584;28;20050;-83
2023/03/24 08:21:32;;;;;;;10.48;2.53;;;14.70;54.20;;;;;;4983649;28;20501;-83
2023/03/24 08:23:59;;;;;;;9.88;2.20;;;14.70;54.10;;;;;;4986116;28;20053;-85
2023/03/24 08:26:27;;;;;;;11.90;2.00;;;14.60;54.30;;;;;;4983328;28;20050;-84
2023/03/24 08:28:54;;;;;;;4.57;1.67;;;14.60;54.30;;;;;;4989652;28;20050;-83
2023/03/24 08:31:23;;;;;;;4.85;1.70;;;14.60;54.40;;;;;;4984126;28;20053;-84
2023/03/24 08:33:50;;;;;;;8.38;2.13;;;14.60;54.50;;;;;;4984746;28;20057;-82
2023/03/24 08:36:17;;;;;;;7.35;1.60;;;14.60;54.70;;;;;;4984259;28;20058;-85
2023/03/24 08:38:46;;;;;;;5.60;1.95;;;14.60;54.80;;;;;;4985772;28;20054;-82
2023/03/24 08:41:14;;;;;;;7.03;2.05;;;14.60;54.90;;;;;;4982830;28;20501;-84
2023/03/24 08:43:41;;;;;;;7.75;2.20;;;14.70;55.10;;;;;;4983683;28;20069;-83
2023/03/24 08:46:09;;;;;;;8.00;2.58;;;14.70;55.30;;;;;;4984927;28;20058;-84
2023/03/24 08:48:39;;;;;;;10.07;2.63;;;14.80;55.10;;;;;;4984431;28;20128;-84
2023/03/24 08:51:12;;;;;;;3.97;1.50;;;14.90;55.10;;;;;;4984664;28;20541;-84
2023/03/24 08:53:39;;;;;;;4.20;1.50;;;14.90;55.20;;;;;;4984462;28;20054;-82
2023/03/24 08:56:07;;;;;;;6.50;2.05;;;15.00;55.10;;;;;;4984489;28;20054;-83
2023/03/24 08:58:35;;;;;;;6.05;1.70;;;15.00;54.90;;;;;;4985592;28;20065;-84
2023/03/24 09:01:03;;;;;;;5.85;1.80;;;15.10;55.30;;;;;;4982611;28;20053;-83
2023/03/24 09:03:30;;;;;;;8.88;2.00;;;15.10;54.80;;;;;;4988165;28;20061;-82
2023/03/24 09:05:59;;;;;;;3.80;1.50;;;15.20;54.70;;;;;;4984314;28;20164;-83
2023/03/24 09:08:26;;;;;;;7.85;2.38;;;15.30;55.20;;;;;;4989576;28;20068;-83
2023/03/24 09:10:54;;;;;;;4.10;1.67;;;15.30;54.50;;;;;;4983943;28;20414;-85
2023/03/24 09:13:21;;;;;;;9.50;2.17;;;15.30;54.30;;;;;;4986696;28;20058;-83
2023/03/24 09:15:50;;;;;;;7.95;1.63;;;15.40;54.00;;;;;;4987189;28;20050;-82
2023/03/24 09:18:17;;;;;;;6.38;1.42;;;15.40;53.70;;;;;;4982593;28;20067;-84
2023/03/24 09:20:55;;;;;;;5.88;1.40;;;15.40;53.50;;;;;;5037504;28;20662;-44
2023/03/24 09:23:22;;;;;;;8.02;2.13;;;15.40;53.40;;;;;;5036392;28;20079;-47
2023/03/24 09:25:50;;;;;;;8.10;1.80;;;15.50;53.40;;;;;;5033078;28;21111;-44
2023/03/24 09:28:18;;;;;;;5.88;1.48;;;15.50;53.30;;;;;;5036699;28;20513;-45
2023/03/24 09:30:45;;;;;;;7.38;1.90;;;15.50;53.40;;;;;;5035232;28;20057;-46
2023/03/24 09:33:12;;;;;;;6.38;1.52;;;15.50;53.40;;;;;;5038127;28;20060;-48
2023/03/24 09:35:40;;;;;;;6.57;1.60;;;15.50;53.20;;;;;;5038018;28;20511;-45
2023/03/24 09:38:10;;;;;;;8.65;1.70;;;15.50;52.80;;;;;;5034081;28;20060;-47
2023/03/24 09:40:39;;;;;;;7.35;1.90;;;15.50;52.80;;;;;;5031767;28;20045;-45
2023/03/24 09:43:12;;;;;;;4.78;1.48;;;15.50;52.60;;;;;;5036386;28;20064;-44
2023/03/24 09:45:49;;;;;;;9.20;1.60;;;15.60;52.40;;;;;;5038068;28;20053;-42
2023/03/24 09:48:24;;;;;;;6.00;1.30;;;15.60;52.30;;;;;;5038306;28;20053;-46
2023/03/24 09:50:56;;;;;;;6.88;1.77;;;15.60;52.10;;;;;;5033125;28;20056;-43
2023/03/24 09:53:31;;;;;;;10.90;2.30;;;15.60;52.20;;;;;;5034221;28;20060;-46
2023/03/24 09:56:03;;;;;;;8.38;2.22;;;15.70;52.00;;;;;;5031002;28;20512;-46
2023/03/24 09:58:32;;;;;;;9.00;2.00;;;15.80;52.00;;;;;;5034672;28;20440;-45
2023/03/24 10:00:59;;;;;;;8.10;1.48;;;15.80;51.70;;;;;;5037134;28;20049;-46
2023/03/24 10:03:27;;;;;;;8.65;2.55;;;15.80;51.70;;;;;;5034941;28;20481;-48
2023/03/24 10:05:58;;;;;;;6.70;1.92;;;15.90;51.50;;;;;;5036162;28;20060;-46
2023/03/24 10:08:31;;;;;;;7.57;1.60;;;15.90;51.40;;;;;;5034123;28;20052;-45
2023/03/24 10:11:03;;;;;;;8.93;1.90;;;16.00;51.50;;;;;;5033279;28;20607;-44
2023/03/24 10:13:39;;;;;;;3.60;1.10;;;16.00;51.50;;;;;;5035224;28;20056;-44
2023/03/24 10:16:12;;;;;;;8.52;2.25;;;16.10;51.50;;;;;;5038553;28;20057;-45
2023/03/24 10:18:44;;;;;;;6.25;1.58;;;16.10;51.20;;;;;;5036334;28;20053;-46
2023/03/24 10:21:19;;;;;;;4.68;1.40;;;16.10;50.60;;;;;;5034335;28;20049;-47
2023/03/24 10:23:54;;;;;;;4.80;1.15;;;16.10;50.50;;;;;;5035446;28;20060;-44
2023/03/24 10:26:34;;;;;;;10.98;1.80;;;16.10;50.40;;;;;;5032830;28;20050;-45
2023/03/24 10:29:13;;;;;;;5.40;1.50;;;16.20;49.80;;;;;;5034211;28;20058;-46
2023/03/24 10:31:43;;;;;;;10.23;2.22;;;16.20;50.30;;;;;;5026771;28;20065;-45
2023/03/24 10:34:13;;;;;;;7.05;1.75;;;16.20;50.30;;;;;;5022050;28;20572;-46
2023/03/24 10:36:41;;;;;;;11.40;1.80;;;16.30;50.00;;;;;;5020099;28;20053;-45
2023/03/24 10:39:15;;;;;;;9.40;1.67;;;16.30;49.10;;;;;;5023150;28;20076;-44
2023/03/24 10:41:43;;;;;;;;;;;16.30;49.20;;;;;;5022138;28;20080;-43
2023/03/24 10:44:12;;;;;;;6.15;1.45;;;16.40;49.80;;;;;;5022706;28;19924;-46
2023/03/24 10:46:46;;;;;;;8.20;1.77;;;16.50;49.00;;;;;;5025091;28;20053;-41
2023/03/24 10:49:18;;;;;;;;;;;16.50;47.90;;;;;;5025993;28;20093;-49
2023/03/24 10:51:48;;;;;;;6.97;1.45;;;16.50;48.60;;;;;;5024554;28;19996;-46
2023/03/24 10:54:20;;;;;;;7.75;1.55;;;16.60;47.30;;;;;;5020484;28;20053;-48
2023/03/24 10:56:49;;;;;;;9.18;1.58;;;16.60;47.10;;;;;;5016615;28;20076;-47
2023/03/24 10:59:26;;;;;;;10.63;2.38;;;16.60;46.90;;;;;;5020066;28;20060;-50
2023/03/24 11:01:59;;;;;;;9.50;1.58;;;16.60;46.20;;;;;;5020984;28;20057;-45
2023/03/24 11:04:29;;;;;;;6.25;1.15;;;16.70;46.60;;;;;;5022743;28;20049;-49
2023/03/24 11:07:02;;;;;;;6.05;1.17;;;16.70;46.50;;;;;;5020798;28;20068;-47
2023/03/24 11:09:41;;;;;;;6.40;1.40;;;16.70;46.50;;;;;;5023142;28;20383;-45
2023/03/24 11:12:22;;;;;;;5.40;1.20;;;16.70;46.40;;;;;;5021599;28;20057;-44
2023/03/24 11:14:49;;;;;;;5.45;1.33;;;16.80;46.30;;;;;;5022367;28;20053;-45
2023/03/24 11:17:20;;;;;;;7.38;1.73;;;16.80;45.60;;;;;;5022257;28;20061;-47
2023/03/24 11:19:53;;;;;;;7.47;1.40;;;16.80;44.90;;;;;;5023115;28;20064;-48
2023/03/24 11:22:20;;;;;;;6.30;1.30;;;16.80;45.10;;;;;;5024473;28;21221;-43
2023/03/24 11:24:51;;;;;;;7.15;1.33;;;16.80;45.10;;;;;;5019435;28;20061;-46
2023/03/24 11:27:19;;;;;;;8.10;1.50;;;16.80;44.90;;;;;;5019276;28;20054;-49
2023/03/24 11:29:52;;;;;;;6.25;1.95;;;16.80;44.30;;;;;;5019314;28;20049;-45
2023/03/24 11:32:25;;;;;;;5.80;1.25;;;16.90;44.40;;;;;;5022803;28;20405;-47
2023/03/24 11:35:02;;;;;;;7.80;1.48;;;16.90;44.60;;;;;;5018160;28;20049;-43
2023/03/24 11:37:32;;;;;;;5.47;1.50;;;16.90;44.30;;;;;;5023836;28;20440;-43
2023/03/24 11:40:17;;;;;;;5.93;1.42;;;16.90;44.50;;;;;;5019585;28;21261;-44
2023/03/24 11:42:45;;;;;;;4.15;0.98;;;17.00;44.60;;;;;;5020285;28;20049;-44
2023/03/24 11:45:26;;;;;;;7.30;1.88;;;17.00;44.80;;;;;;5023643;28;20064;-44
2023/03/24 11:47:56;;;;;;;7.65;1.27;;;17.10;44.60;;;;;;5023143;28;20060;-46
2023/03/24 11:50:27;;;;;;;3.33;1.15;;;17.10;44.20;;;;;;5019130;28;20049;-44
2023/03/24 11:53:00;;;;;;;4.30;1.20;;;17.10;44.30;;;;;;5020907;28;20065;-47
2023/03/24 11:55:35;;;;;;;8.88;1.65;;;17.10;44.40;;;;;;5016556;28;20064;-46
2023/03/24 11:58:06;;;;;;;8.68;2.10;;;17.20;43.60;;;;;;5020548;28;20068;-46
2023/03/24 12:00:37;;;;;;;3.42;1.00;;;17.20;43.70;;;;;;5018622;28;20076;-45
2023/03/24 12:03:45;;;;;;;7.10;1.33;;;17.20;43.90;;;;;;5022024;28;20054;-43
2023/03/24 12:06:25;;;;;;;8.93;1.80;;;17.30;43.90;;;;;;5018409;28;20065;-45
2023/03/24 12:09:06;;;;;;;4.78;1.10;;;17.30;43.20;;;;;;5020646;28;20053;-44
2023/03/24 12:11:50;;;;;;;5.47;1.40;;;17.40;43.70;;;;;;5019536;28;20056;-47
2023/03/24 12:14:22;;;;;;;;;;;17.40;42.80;;;;;;5021008;28;20053;-46
2023/03/24 12:17:02;;;;;;;3.85;1.05;;;17.40;43.40;;;;;;5022741;28;19932;-47
2023/03/24 12:20:07;;;;;;;6.97;1.52;;;17.50;42.80;;;;;;5022705;28;20065;-47
2023/03/24 12:22:46;;;;;;;4.05;1.15;;;17.50;42.70;;;;;;5022615;28;20064;-47
2023/03/24 12:25:29;;;;;;;5.22;1.25;;;17.50;42.90;;;;;;5022784;28;20057;-48
2023/03/24 12:28:11;;;;;;;5.05;1.20;;;17.50;43.50;;;;;;5021409;28;20060;-43
2023/03/24 12:30:46;;;;;;;6.95;1.25;;;17.60;42.70;;;;;;5022672;28;20049;-46
2023/03/24 12:33:36;;;;;;;6.45;1.10;;;17.60;42.40;;;;;;5023182;28;20057;-44
2023/03/24 12:36:19;;;;;;;5.38;1.17;;;17.60;42.40;;;;;;5022154;28;20497;-44
2023/03/24 12:39:01;;;;;;;5.53;1.38;;;17.60;42.40;;;;;;5022198;28;20061;-46
2023/03/24 12:41:40;;;;;;;7.07;1.00;;;17.70;42.50;;;;;;5021028;28;20492;-46
2023/03/24 12:44:23;;;;;;;4.70;1.40;;;17.70;42.90;;;;;;5021060;28;20061;-44
2023/03/24 12:47:02;;;;;;;2.67;1.10;;;17.80;42.10;;;;;;5020887;28;20057;-46
2023/03/24 12:49:46;;;;;;;8.27;1.30;;;17.80;42.20;;;;;;5019316;28;20060;-44
2023/03/24 12:52:36;;;;;;;4.53;0.90;;;17.80;41.70;;;;;;5018982;28;20045;-44
2023/03/24 12:55:11;;;;;;;6.40;0.75;;;17.80;41.30;;;;;;5021648;28;20060;-44
2023/03/24 12:57:44;;;;;;;5.18;1.35;;;17.80;41.10;;;;;;5016783;28;20425;-50
2023/03/24 13:00:19;;;;;;;3.83;1.20;;;17.80;41.40;;;;;;5019779;28;20120;-47
2023/03/24 13:02:51;;;;;;;7.15;1.63;;;17.80;41.60;;;;;;5022043;28;20064;-47
2023/03/24 13:05:22;;;;;;;4.80;1.30;;;17.90;41.90;;;;;;5021700;28;20056;-45
2023/03/24 13:07:54;;;;;;;2.40;0.82;;;17.90;41.40;;;;;;5019525;28;20506;-45
2023/03/24 13:10:25;;;;;;;4.20;1.10;;;17.90;41.10;;;;;;5017648;28;20049;-45